createdAt,value
2023-01-13T00:00:31.722Z,10.81
2023-01-13T00:01:32.960Z,10.80
2023-01-13T00:02:31.132Z,10.80
2023-01-13T00:03:32.411Z,10.75
2023-01-13T00:04:31.748Z,10.75
2023-01-13T00:05:31.925Z,10.76
2023-01-13T00:06:32.081Z,10.80
2023-01-13T00:07:32.356Z,10.78
2023-01-13T00:08:31.648Z,10.76
2023-01-13T00:09:31.104Z,10.78
2023-01-13T00:10:31.443Z,10.80
2023-01-13T00:11:32.613Z,10.76
2023-01-13T00:12:32.929Z,10.80
2023-01-13T00:13:31.208Z,10.78
2023-01-13T00:14:32.444Z,10.81
2023-01-13T00:15:33.651Z,10.81
2023-01-13T00:16:31.947Z,10.81
2023-01-13T00:17:32.225Z,10.76
2023-01-13T00:18:32.475Z,10.73
2023-01-13T00:19:32.761Z,10.69
2023-01-13T00:20:31.998Z,10.70
2023-01-13T00:21:31.384Z,10.72
2023-01-13T00:22:31.645Z,10.70
2023-01-13T00:23:30.878Z,10.69
2023-01-13T00:24:31.185Z,10.68
2023-01-13T00:25:31.453Z,10.69
2023-01-13T00:26:31.789Z,10.69
2023-01-13T00:27:31.926Z,10.68
2023-01-13T00:28:31.227Z,10.69
2023-01-13T00:29:32.455Z,10.68
2023-01-13T00:30:30.739Z,10.69
2023-01-13T00:31:32.047Z,10.69
2023-01-13T00:32:32.316Z,10.69
2023-01-13T00:33:32.484Z,10.66
2023-01-13T00:34:31.715Z,10.66
2023-01-13T00:35:31.985Z,10.65
2023-01-13T00:36:32.268Z,10.65
2023-01-13T00:37:31.638Z,10.65
2023-01-13T00:38:31.744Z,10.63
2023-01-13T00:39:32.038Z,10.62
2023-01-13T00:40:31.329Z,10.66
2023-01-13T00:41:31.638Z,10.66
2023-01-13T00:42:31.797Z,10.63
2023-01-13T00:43:32.058Z,10.62
2023-01-13T00:44:31.329Z,10.65
2023-01-13T00:45:31.569Z,10.65
2023-01-13T00:46:31.847Z,10.66
2023-01-13T00:47:31.088Z,10.69
2023-01-13T00:48:31.408Z,10.68
2023-01-13T00:49:31.527Z,10.70
2023-01-13T00:50:30.860Z,10.70
2023-01-13T00:51:31.139Z,10.69
2023-01-13T00:52:31.418Z,10.70
2023-01-13T00:53:30.649Z,10.69
2023-01-13T00:54:30.963Z,10.72
2023-01-13T00:55:32.168Z,10.70
2023-01-13T00:56:40.097Z,10.70
2023-01-13T00:59:18.826Z,10.73
2023-01-13T01:00:18.109Z,10.75
2023-01-13T01:05:33.598Z,10.72
2023-01-13T01:06:32.809Z,10.70
2023-01-13T01:07:33.983Z,10.73
2023-01-13T01:08:33.318Z,10.72
2023-01-13T01:09:34.514Z,10.72
2023-01-13T01:10:32.785Z,10.70
2023-01-13T01:11:33.424Z,10.72
2023-01-13T01:12:33.330Z,10.73
2023-01-13T01:13:32.546Z,10.70
2023-01-13T01:14:32.812Z,10.70
2023-01-13T01:15:33.078Z,10.70
2023-01-13T01:16:33.456Z,10.70
2023-01-13T01:17:32.540Z,10.73
2023-01-13T01:18:33.779Z,10.70
2023-01-13T01:19:34.034Z,10.70
2023-01-13T01:20:33.420Z,10.66
2023-01-13T01:21:33.501Z,10.65
2023-01-13T01:22:32.909Z,10.62
2023-01-13T01:23:34.014Z,10.60
2023-01-13T01:24:34.274Z,10.63
2023-01-13T01:25:33.514Z,10.66
2023-01-13T01:26:32.821Z,10.63
2023-01-13T01:27:33.105Z,10.65
2023-01-13T01:28:32.369Z,10.63
2023-01-13T01:29:32.564Z,10.65
2023-01-13T01:30:32.841Z,10.66
2023-01-13T01:31:34.155Z,10.63
2023-01-13T01:32:33.254Z,10.63
2023-01-13T01:33:32.621Z,10.63
2023-01-13T01:34:33.750Z,10.63
2023-01-13T01:35:33.100Z,10.63
2023-01-13T01:36:32.272Z,10.60
2023-01-13T01:37:33.478Z,10.62
2023-01-13T01:38:32.824Z,10.60
2023-01-13T01:39:33.063Z,10.60
2023-01-13T01:40:32.272Z,10.62
2023-01-13T01:41:33.525Z,10.58
2023-01-13T01:42:32.769Z,10.57
2023-01-13T01:43:33.039Z,10.47
2023-01-13T01:44:32.489Z,10.43
2023-01-13T01:45:34.150Z,10.38
2023-01-13T01:46:47.437Z,10.31
2023-01-13T01:47:35.045Z,10.24
2023-01-13T01:48:33.285Z,10.14
2023-01-13T01:49:32.627Z,9.92
2023-01-13T01:50:32.862Z,9.75
2023-01-13T01:51:34.074Z,9.48
2023-01-13T01:52:33.358Z,9.32
2023-01-13T01:53:32.688Z,9.03
2023-01-13T01:54:32.976Z,8.88
2023-01-13T01:55:32.233Z,8.75
2023-01-13T01:56:32.491Z,8.63
2023-01-13T01:57:32.759Z,8.58
2023-01-13T01:58:32.049Z,8.47
2023-01-13T01:59:32.286Z,8.45
2023-01-13T02:00:32.940Z,8.43
2023-01-13T02:01:33.991Z,8.42
2023-01-13T02:02:33.077Z,8.42
2023-01-13T02:03:33.313Z,8.43
2023-01-13T02:04:33.581Z,8.43
2023-01-13T02:05:32.845Z,8.49
2023-01-13T02:06:32.200Z,8.58
2023-01-13T02:07:33.472Z,8.58
2023-01-13T02:08:33.672Z,8.64
2023-01-13T02:09:32.960Z,8.70
2023-01-13T02:10:32.289Z,8.73
2023-01-13T02:11:31.869Z,8.79
2023-01-13T02:12:32.231Z,8.80
2023-01-13T02:13:33.439Z,8.82
2023-01-13T02:14:32.700Z,8.79
2023-01-13T02:15:32.001Z,8.78
2023-01-13T02:16:33.296Z,8.76
2023-01-13T02:17:33.187Z,8.71
2023-01-13T02:18:31.782Z,8.75
2023-01-13T02:19:33.029Z,8.78
2023-01-13T02:20:32.346Z,8.78
2023-01-13T02:21:31.591Z,8.78
2023-01-13T02:22:31.870Z,8.75
2023-01-13T02:23:32.210Z,8.73
2023-01-13T02:24:32.487Z,8.68
2023-01-13T02:25:31.688Z,8.67
2023-01-13T02:26:31.999Z,8.65
2023-01-13T02:27:33.282Z,8.61
2023-01-13T02:28:32.480Z,8.61
2023-01-13T02:29:31.931Z,8.57
2023-01-13T02:30:33.087Z,8.55
2023-01-13T02:31:32.425Z,8.57
2023-01-13T02:32:32.607Z,8.54
2023-01-13T02:33:32.880Z,8.52
2023-01-13T02:34:32.220Z,8.50
2023-01-13T02:35:31.554Z,8.47
2023-01-13T02:36:31.806Z,8.47
2023-01-13T02:37:33.015Z,8.47
2023-01-13T02:38:32.350Z,8.46
2023-01-13T02:39:31.641Z,8.47
2023-01-13T02:40:31.933Z,8.46
2023-01-13T02:41:32.209Z,8.45
2023-01-13T02:42:32.455Z,8.45
2023-01-13T02:43:31.783Z,8.45
2023-01-13T02:44:32.072Z,8.40
2023-01-13T02:45:31.447Z,8.40
2023-01-13T02:46:32.583Z,8.39
2023-01-13T02:47:32.882Z,8.37
2023-01-13T02:48:33.189Z,8.37
2023-01-13T02:49:32.482Z,8.37
2023-01-13T02:50:31.890Z,8.36
2023-01-13T02:51:32.092Z,8.34
2023-01-13T02:52:31.354Z,8.32
2023-01-13T02:53:32.583Z,8.29
2023-01-13T02:54:32.876Z,8.28
2023-01-13T02:55:31.182Z,8.28
2023-01-13T02:56:32.460Z,8.29
2023-01-13T02:57:31.734Z,8.28
2023-01-13T02:58:32.059Z,8.25
2023-01-13T02:59:32.221Z,8.27
2023-01-13T03:00:32.543Z,8.27
2023-01-13T03:01:32.020Z,8.25
2023-01-13T03:02:31.288Z,8.28
2023-01-13T03:03:31.467Z,8.28
2023-01-13T03:04:32.676Z,8.29
2023-01-13T03:05:32.955Z,8.28
2023-01-13T03:06:32.211Z,8.24
2023-01-13T03:07:31.615Z,8.25
2023-01-13T03:08:31.835Z,8.27
2023-01-13T03:09:31.092Z,8.25
2023-01-13T03:10:32.355Z,8.24
2023-01-13T03:11:31.688Z,8.21
2023-01-13T03:12:31.971Z,8.22
2023-01-13T03:13:32.176Z,8.20
2023-01-13T03:14:32.471Z,8.18
2023-01-13T03:15:31.997Z,8.20
2023-01-13T03:16:31.127Z,8.18
2023-01-13T03:17:31.356Z,8.17
2023-01-13T03:18:32.095Z,8.17
2023-01-13T03:19:30.864Z,8.14
2023-01-13T03:20:31.139Z,8.13
2023-01-13T03:21:32.401Z,8.14
2023-01-13T03:22:31.689Z,8.17
2023-01-13T03:23:31.905Z,8.14
2023-01-13T03:24:31.226Z,8.17
2023-01-13T03:25:31.511Z,8.13
2023-01-13T03:26:31.780Z,8.17
2023-01-13T03:27:30.986Z,8.13
2023-01-13T03:28:32.219Z,8.10
2023-01-13T03:29:31.585Z,8.10
2023-01-13T03:30:31.775Z,8.06
2023-01-13T03:31:32.025Z,8.06
2023-01-13T03:32:32.325Z,8.04
2023-01-13T03:33:31.651Z,8.04
2023-01-13T03:34:31.863Z,8.03
2023-01-13T03:35:32.230Z,8.03
2023-01-13T03:36:31.474Z,8.03
2023-01-13T03:37:30.759Z,8.04
2023-01-13T03:38:31.996Z,8.02
2023-01-13T03:39:32.264Z,8.02
2023-01-13T03:40:31.621Z,8.02
2023-01-13T03:41:31.777Z,8.02
2023-01-13T03:42:32.060Z,8.03
2023-01-13T03:43:32.354Z,8.04
2023-01-13T03:44:32.764Z,8.06
2023-01-13T03:45:31.909Z,8.07
2023-01-13T03:46:31.251Z,8.06
2023-01-13T03:47:31.506Z,8.06
2023-01-13T03:48:31.763Z,8.09
2023-01-13T03:49:31.027Z,8.12
2023-01-13T03:50:31.270Z,8.13
2023-01-13T03:51:30.491Z,8.12
2023-01-13T03:52:30.826Z,8.10
2023-01-13T03:53:31.079Z,8.09
2023-01-13T03:54:32.287Z,8.09
2023-01-13T03:55:31.576Z,8.12
2023-01-13T03:56:31.851Z,8.13
2023-01-13T03:57:31.191Z,8.14
2023-01-13T03:58:31.366Z,8.13
2023-01-13T03:59:30.686Z,8.14
2023-01-13T04:00:30.992Z,8.14
2023-01-13T04:01:32.404Z,8.13
2023-01-13T04:02:30.685Z,8.17
2023-01-13T04:03:31.908Z,8.18
2023-01-13T04:04:32.119Z,8.20
2023-01-13T04:05:30.440Z,8.20
2023-01-13T04:06:30.750Z,8.22
2023-01-13T04:07:31.047Z,8.22
2023-01-13T04:08:30.318Z,8.22
2023-01-13T04:09:30.605Z,8.24
2023-01-13T04:10:31.476Z,8.25
2023-01-13T04:11:31.165Z,8.22
2023-01-13T04:12:31.445Z,8.20
2023-01-13T04:13:30.833Z,8.21
2023-01-13T04:14:31.110Z,8.24
2023-01-13T04:15:30.453Z,8.24
2023-01-13T04:16:31.640Z,8.22
2023-01-13T04:17:31.920Z,8.29
2023-01-13T04:18:31.194Z,8.36
2023-01-13T04:19:31.793Z,8.36
2023-01-13T04:20:31.763Z,8.34
2023-01-13T04:21:31.042Z,8.36
2023-01-13T04:22:30.350Z,8.32
2023-01-13T04:23:31.609Z,8.36
2023-01-13T04:24:31.920Z,8.34
2023-01-13T04:25:31.234Z,8.31
2023-01-13T04:26:30.479Z,8.27
2023-01-13T04:27:30.760Z,8.25
2023-01-13T04:28:30.018Z,8.31
2023-01-13T04:29:31.247Z,8.22
2023-01-13T04:30:30.609Z,8.20
2023-01-13T04:31:31.822Z,8.22
2023-01-13T04:32:31.050Z,8.22
2023-01-13T04:33:30.367Z,8.20
2023-01-13T04:34:30.664Z,8.18
2023-01-13T04:35:29.927Z,8.20
2023-01-13T04:36:31.155Z,8.18
2023-01-13T04:37:30.443Z,8.17
2023-01-13T04:38:30.747Z,8.14
2023-01-13T04:39:30.924Z,8.12
2023-01-13T04:40:31.185Z,8.12
2023-01-13T04:41:30.531Z,8.10
2023-01-13T04:42:30.769Z,8.13
2023-01-13T04:43:30.041Z,8.12
2023-01-13T04:44:31.251Z,8.12
2023-01-13T04:45:31.526Z,8.10
2023-01-13T04:46:30.768Z,8.06
2023-01-13T04:47:31.053Z,8.09
2023-01-13T04:48:30.503Z,8.07
2023-01-13T04:49:30.635Z,8.09
2023-01-13T04:50:29.906Z,8.12
2023-01-13T04:51:30.204Z,8.12
2023-01-13T04:52:31.493Z,8.12
2023-01-13T04:53:30.644Z,8.10
2023-01-13T04:54:31.958Z,8.07
2023-01-13T04:55:31.207Z,8.09
2023-01-13T04:56:31.465Z,8.10
2023-01-13T04:57:30.705Z,8.09
2023-01-13T04:58:30.104Z,8.12
2023-01-13T04:59:33.282Z,8.12
2023-01-13T05:00:30.579Z,8.10
2023-01-13T05:01:30.881Z,8.09
2023-01-13T05:02:30.085Z,8.09
2023-01-13T05:03:31.725Z,8.12
2023-01-13T05:04:30.591Z,8.12
2023-01-13T05:05:30.879Z,8.10
2023-01-13T05:06:31.121Z,8.12
2023-01-13T05:07:30.451Z,8.12
2023-01-13T05:08:29.699Z,8.13
2023-01-13T05:09:30.970Z,8.12
2023-01-13T05:10:31.240Z,8.12
2023-01-13T05:11:30.471Z,8.09
2023-01-13T05:12:30.750Z,8.09
2023-01-13T05:13:31.067Z,8.06
2023-01-13T05:14:29.384Z,8.07
2023-01-13T05:15:29.726Z,8.09
2023-01-13T05:16:29.995Z,8.07
2023-01-13T05:17:30.304Z,8.06
2023-01-13T05:18:29.590Z,8.03
2023-01-13T05:19:30.846Z,8.02
2023-01-13T05:20:30.234Z,8.02
2023-01-13T05:21:29.495Z,7.92
2023-01-13T05:22:29.792Z,7.92
2023-01-13T05:23:30.101Z,7.92
2023-01-13T05:24:29.390Z,7.91
2023-01-13T05:25:29.721Z,7.88
2023-01-13T05:26:30.041Z,7.88
2023-01-13T05:27:29.286Z,7.88
2023-01-13T05:28:29.352Z,7.88
2023-01-13T05:29:29.654Z,7.86
2023-01-13T05:30:30.878Z,7.84
2023-01-13T05:31:30.230Z,7.82
2023-01-13T05:32:30.479Z,7.82
2023-01-13T05:33:30.726Z,7.81
2023-01-13T05:34:30.073Z,7.77
2023-01-13T05:35:30.284Z,7.79
2023-01-13T05:36:29.634Z,7.79
2023-01-13T05:37:29.991Z,7.84
2023-01-13T05:38:30.173Z,7.84
2023-01-13T05:39:31.491Z,7.84
2023-01-13T05:40:31.336Z,7.84
2023-01-13T05:41:29.110Z,7.79
2023-01-13T05:42:30.382Z,7.77
2023-01-13T05:43:29.772Z,7.77
2023-01-13T05:44:29.945Z,7.74
2023-01-13T05:45:29.438Z,7.74
2023-01-13T05:46:30.637Z,7.77
2023-01-13T05:47:30.948Z,7.79
2023-01-13T05:48:29.282Z,7.74
2023-01-13T05:49:29.610Z,7.73
2023-01-13T05:50:30.886Z,7.71
2023-01-13T05:51:29.222Z,7.70
2023-01-13T05:52:29.448Z,7.70
2023-01-13T05:53:30.715Z,7.69
2023-01-13T05:54:30.005Z,7.63
2023-01-13T05:55:30.353Z,7.62
2023-01-13T05:56:30.625Z,7.62
2023-01-13T05:57:29.881Z,7.63
2023-01-13T05:58:30.182Z,7.62
2023-01-13T05:59:29.541Z,7.69
2023-01-13T06:00:28.879Z,7.67
2023-01-13T06:01:30.222Z,7.69
2023-01-13T06:02:28.933Z,7.70
2023-01-13T06:03:29.247Z,7.73
2023-01-13T06:04:29.571Z,7.70
2023-01-13T06:05:28.842Z,7.73
2023-01-13T06:06:29.163Z,7.73
2023-01-13T06:07:29.841Z,7.71
2023-01-13T06:08:28.784Z,7.73
2023-01-13T06:09:29.062Z,7.70
2023-01-13T06:10:30.353Z,7.71
2023-01-13T06:11:29.711Z,7.71
2023-01-13T06:12:28.961Z,7.71
2023-01-13T06:13:29.334Z,7.71
2023-01-13T06:14:30.536Z,7.70
2023-01-13T06:15:28.841Z,7.70
2023-01-13T06:16:29.248Z,7.73
2023-01-13T06:17:29.483Z,7.74
2023-01-13T06:18:28.812Z,7.73
2023-01-13T06:19:29.157Z,7.73
2023-01-13T06:20:29.467Z,7.71
2023-01-13T06:21:28.547Z,7.70
2023-01-13T06:22:29.813Z,7.70
2023-01-13T06:23:29.174Z,7.69
2023-01-13T06:24:30.330Z,7.69
2023-01-13T06:25:28.724Z,7.69
2023-01-13T06:26:29.036Z,7.67
2023-01-13T06:27:29.345Z,7.67
2023-01-13T06:28:29.451Z,7.63
2023-01-13T06:29:28.901Z,7.63
2023-01-13T06:30:29.307Z,7.60
2023-01-13T06:31:28.540Z,7.63
2023-01-13T06:32:28.807Z,7.60
2023-01-13T06:33:30.018Z,7.60
2023-01-13T06:34:30.391Z,7.62
2023-01-13T06:35:28.612Z,7.62
2023-01-13T06:36:29.877Z,7.62
2023-01-13T06:37:30.120Z,7.60
2023-01-13T06:38:29.491Z,7.63
2023-01-13T06:39:29.687Z,7.62
2023-01-13T06:40:30.030Z,7.62
2023-01-13T06:41:29.277Z,7.62
2023-01-13T06:42:28.677Z,7.60
2023-01-13T06:43:29.882Z,7.62
2023-01-13T06:44:29.272Z,7.62
2023-01-13T06:45:29.536Z,7.62
2023-01-13T06:46:29.849Z,7.63
2023-01-13T06:47:29.182Z,7.63
2023-01-13T06:48:29.381Z,7.67
2023-01-13T06:49:28.750Z,7.69
2023-01-13T06:50:29.993Z,7.69
2023-01-13T06:51:28.313Z,7.69
2023-01-13T06:52:29.557Z,7.69
2023-01-13T06:53:28.931Z,7.69
2023-01-13T06:54:29.118Z,7.54
2023-01-13T06:55:29.508Z,7.67
2023-01-13T06:56:29.747Z,7.69
2023-01-13T06:57:30.008Z,7.67
2023-01-13T06:58:28.294Z,7.69
2023-01-13T06:59:28.789Z,7.66
2023-01-13T07:00:28.878Z,7.67
2023-01-13T07:01:28.190Z,7.70
2023-01-13T07:02:28.554Z,7.71
2023-01-13T07:03:28.741Z,7.73
2023-01-13T07:04:27.995Z,7.74
2023-01-13T07:05:29.308Z,7.74
2023-01-13T07:06:29.567Z,7.74
2023-01-13T07:07:29.869Z,7.74
2023-01-13T07:08:29.034Z,7.77
2023-01-13T07:09:29.422Z,7.79
2023-01-13T07:10:29.164Z,7.81
2023-01-13T07:11:28.047Z,7.79
2023-01-13T07:12:28.336Z,7.79
2023-01-13T07:13:28.629Z,7.79
2023-01-13T07:14:27.889Z,7.79
2023-01-13T07:15:28.230Z,7.82
2023-01-13T07:16:29.560Z,7.86
2023-01-13T07:17:29.779Z,7.88
2023-01-13T07:18:28.056Z,7.88
2023-01-13T07:19:28.362Z,7.85
2023-01-13T07:20:29.628Z,7.88
2023-01-13T07:21:27.904Z,7.88
2023-01-13T07:22:28.260Z,7.89
2023-01-13T07:23:29.467Z,7.88
2023-01-13T07:24:27.741Z,7.91
2023-01-13T07:25:28.071Z,7.94
2023-01-13T07:26:28.702Z,7.92
2023-01-13T07:27:29.104Z,7.95
2023-01-13T07:28:27.928Z,7.96
2023-01-13T07:29:28.252Z,7.96
2023-01-13T07:30:29.539Z,7.99
2023-01-13T07:31:28.152Z,7.99
2023-01-13T07:32:28.187Z,7.99
2023-01-13T07:33:29.480Z,7.99
2023-01-13T07:34:27.743Z,8.00
2023-01-13T07:35:28.059Z,7.99
2023-01-13T07:36:28.372Z,7.99
2023-01-13T07:37:27.726Z,7.99
2023-01-13T07:38:27.923Z,7.99
2023-01-13T07:39:28.281Z,7.99
2023-01-13T07:40:28.571Z,7.96
2023-01-13T07:41:27.800Z,7.95
2023-01-13T07:42:28.123Z,7.92
2023-01-13T07:43:28.426Z,7.92
2023-01-13T07:44:27.718Z,7.91
2023-01-13T07:45:28.115Z,7.89
2023-01-13T07:46:28.385Z,7.85
2023-01-13T07:47:27.706Z,7.85
2023-01-13T07:48:27.935Z,7.81
2023-01-13T07:49:28.240Z,7.77
2023-01-13T07:50:27.560Z,7.77
2023-01-13T07:51:27.910Z,7.77
2023-01-13T07:52:28.148Z,7.82
2023-01-13T07:53:27.483Z,7.84
2023-01-13T07:54:39.773Z,7.85
2023-01-13T07:55:29.097Z,7.86
2023-01-13T07:56:27.365Z,7.86
2023-01-13T07:57:27.739Z,7.88
2023-01-13T07:58:28.006Z,7.86
2023-01-13T07:59:28.287Z,7.86
2023-01-13T08:00:28.704Z,7.88
2023-01-13T08:01:28.028Z,7.89
2023-01-13T08:02:28.377Z,7.92
2023-01-13T08:03:27.461Z,7.94
2023-01-13T08:04:27.737Z,7.94
2023-01-13T08:05:28.080Z,7.92
2023-01-13T08:06:27.336Z,7.91
2023-01-13T08:07:27.715Z,7.85
2023-01-13T08:08:27.971Z,7.76
2023-01-13T08:09:27.216Z,7.66
2023-01-13T08:10:27.536Z,7.51
2023-01-13T08:11:27.867Z,7.44
2023-01-13T08:12:27.147Z,7.37
2023-01-13T08:13:28.760Z,7.30
2023-01-13T08:14:27.812Z,7.27
2023-01-13T08:15:29.046Z,7.23
2023-01-13T08:16:27.423Z,7.21
2023-01-13T08:17:27.708Z,7.16
2023-01-13T08:18:28.044Z,7.16
2023-01-13T08:19:27.354Z,7.11
2023-01-13T08:20:27.647Z,7.12
2023-01-13T08:21:27.929Z,7.08
2023-01-13T08:22:27.208Z,7.01
2023-01-13T08:23:27.516Z,7.00
2023-01-13T08:24:27.839Z,6.93
2023-01-13T08:25:27.132Z,6.91
2023-01-13T08:26:27.412Z,6.93
2023-01-13T08:27:27.731Z,6.91
2023-01-13T08:28:27.006Z,6.93
2023-01-13T08:29:28.278Z,6.94
2023-01-13T08:30:27.807Z,6.90
2023-01-13T08:31:27.858Z,6.90
2023-01-13T08:32:27.000Z,6.90
2023-01-13T08:33:27.317Z,6.90
2023-01-13T08:34:27.634Z,6.91
2023-01-13T08:35:26.967Z,6.93
2023-01-13T08:36:27.504Z,6.96
2023-01-13T08:37:27.669Z,6.97
2023-01-13T08:38:27.049Z,6.96
2023-01-13T08:39:27.259Z,6.96
2023-01-13T08:40:27.590Z,6.97
2023-01-13T08:41:26.934Z,6.96
2023-01-13T08:42:27.248Z,6.96
2023-01-13T08:43:27.554Z,6.96
2023-01-13T08:44:26.818Z,6.94
2023-01-13T08:45:27.161Z,6.96
2023-01-13T08:46:27.599Z,6.99
2023-01-13T08:47:26.766Z,7.00
2023-01-13T08:48:28.226Z,7.01
2023-01-13T08:49:27.405Z,7.04
2023-01-13T08:50:26.722Z,7.05
2023-01-13T08:51:28.185Z,7.11
2023-01-13T08:52:27.387Z,7.12
2023-01-13T08:53:26.663Z,7.16
2023-01-13T08:54:27.050Z,7.16
2023-01-13T08:55:27.329Z,7.16
2023-01-13T08:56:26.636Z,7.21
2023-01-13T08:57:27.055Z,7.19
2023-01-13T08:58:27.315Z,7.21
2023-01-13T08:59:26.618Z,7.26
2023-01-13T09:00:27.075Z,7.24
2023-01-13T09:01:27.403Z,7.29
2023-01-13T09:02:26.664Z,7.24
2023-01-13T09:03:26.977Z,7.24
2023-01-13T09:04:27.400Z,7.24
2023-01-13T09:05:26.633Z,7.24
2023-01-13T09:06:26.601Z,7.29
2023-01-13T09:07:26.933Z,7.29
2023-01-13T09:08:27.199Z,7.33
2023-01-13T09:09:26.494Z,7.37
2023-01-13T09:10:26.815Z,7.44
2023-01-13T09:11:27.179Z,7.48
2023-01-13T09:12:26.499Z,7.52
2023-01-13T09:13:26.796Z,7.55
2023-01-13T09:14:27.098Z,7.57
2023-01-13T09:15:26.456Z,7.60
2023-01-13T09:16:26.671Z,7.62
2023-01-13T09:17:27.363Z,7.66
2023-01-13T09:18:26.278Z,7.69
2023-01-13T09:19:27.543Z,7.67
2023-01-13T09:20:27.835Z,7.70
2023-01-13T09:21:28.167Z,7.70
2023-01-13T09:22:27.455Z,7.73
2023-01-13T09:23:26.862Z,7.74
2023-01-13T09:24:27.110Z,7.79
2023-01-13T09:25:26.421Z,7.77
2023-01-13T09:26:26.717Z,7.79
2023-01-13T09:27:27.054Z,7.81
2023-01-13T09:28:26.348Z,7.81
2023-01-13T09:29:26.982Z,7.82
2023-01-13T09:30:26.988Z,7.82
2023-01-13T09:31:26.256Z,7.85
2023-01-13T09:32:26.563Z,7.86
2023-01-13T09:33:26.907Z,7.91
2023-01-13T09:34:26.180Z,7.92
2023-01-13T09:35:27.207Z,7.92
2023-01-13T09:36:26.833Z,7.92
2023-01-13T09:37:26.100Z,7.95
2023-01-13T09:38:26.468Z,8.02
2023-01-13T09:39:26.737Z,8.02
2023-01-13T09:40:26.942Z,8.04
2023-01-13T09:41:26.332Z,8.04
2023-01-13T09:42:26.655Z,8.06
2023-01-13T09:43:26.931Z,8.06
2023-01-13T09:44:26.203Z,8.07
2023-01-13T09:45:26.557Z,8.09
2023-01-13T09:46:26.928Z,8.13
2023-01-13T09:47:26.120Z,8.14
2023-01-13T09:48:26.496Z,8.21
2023-01-13T09:49:26.779Z,8.21
2023-01-13T09:50:27.081Z,8.21
2023-01-13T09:51:27.510Z,8.20
2023-01-13T09:52:27.226Z,8.21
2023-01-13T09:53:26.959Z,8.22
2023-01-13T09:54:27.275Z,8.25
2023-01-13T09:55:26.661Z,8.28
2023-01-13T09:56:25.918Z,8.34
2023-01-13T09:57:27.183Z,8.40
2023-01-13T09:58:26.632Z,8.40
2023-01-13T09:59:26.835Z,8.47
2023-01-13T10:00:28.165Z,8.50
2023-01-13T10:01:26.475Z,8.52
2023-01-13T10:02:25.748Z,8.57
2023-01-13T10:03:27.063Z,8.58
2023-01-13T10:04:26.508Z,8.63
2023-01-13T10:05:26.682Z,8.64
2023-01-13T10:06:26.037Z,8.64
2023-01-13T10:07:29.298Z,8.63
2023-01-13T10:08:26.627Z,8.63
2023-01-13T10:09:25.761Z,8.63
2023-01-13T10:10:26.112Z,8.64
2023-01-13T10:11:26.687Z,8.65
2023-01-13T10:12:27.035Z,8.65
2023-01-13T10:13:26.270Z,8.67
2023-01-13T10:14:26.489Z,8.68
2023-01-13T10:15:26.784Z,8.70
2023-01-13T10:16:26.217Z,8.70
2023-01-13T10:17:26.476Z,8.70
2023-01-13T10:18:25.805Z,8.71
2023-01-13T10:19:27.073Z,8.71
2023-01-13T10:20:25.601Z,8.73
2023-01-13T10:21:25.884Z,8.78
2023-01-13T10:22:26.477Z,8.76
2023-01-13T10:23:25.479Z,8.76
2023-01-13T10:24:25.587Z,8.80
2023-01-13T10:25:26.817Z,8.86
2023-01-13T10:26:27.248Z,8.83
2023-01-13T10:27:26.469Z,8.86
2023-01-13T10:28:25.944Z,8.91
2023-01-13T10:29:26.199Z,8.94
2023-01-13T10:30:25.496Z,8.96
2023-01-13T10:31:26.729Z,9.03
2023-01-13T10:32:26.997Z,9.03
2023-01-13T10:33:28.010Z,9.03
2023-01-13T10:34:25.729Z,9.08
2023-01-13T10:35:26.883Z,9.12
2023-01-13T10:36:26.203Z,9.12
2023-01-13T10:37:25.473Z,9.17
2023-01-13T10:38:25.793Z,9.23
2023-01-13T10:39:26.079Z,9.23
2023-01-13T10:40:26.232Z,9.27
2023-01-13T10:41:26.599Z,9.26
2023-01-13T10:42:25.859Z,9.26
2023-01-13T10:43:26.161Z,9.24
2023-01-13T10:44:25.407Z,9.22
2023-01-13T10:45:25.698Z,9.22
2023-01-13T10:46:26.016Z,9.20
2023-01-13T10:47:25.275Z,9.19
2023-01-13T10:48:25.566Z,9.17
2023-01-13T10:49:25.904Z,9.17
2023-01-13T10:50:26.021Z,9.17
2023-01-13T10:51:25.452Z,9.19
2023-01-13T10:52:25.722Z,9.19
2023-01-13T10:53:25.992Z,9.19
2023-01-13T10:54:26.271Z,9.20
2023-01-13T10:55:26.461Z,9.22
2023-01-13T10:56:25.779Z,9.22
2023-01-13T10:57:25.989Z,9.23
2023-01-13T10:58:25.365Z,9.24
2023-01-13T10:59:25.796Z,9.27
2023-01-13T11:00:26.883Z,9.26
2023-01-13T11:01:25.222Z,9.27
2023-01-13T11:02:27.116Z,9.30
2023-01-13T11:03:26.692Z,9.30
2023-01-13T11:04:25.997Z,9.26
2023-01-13T11:05:25.363Z,9.30
2023-01-13T11:06:25.528Z,9.30
2023-01-13T11:07:28.237Z,9.32
2023-01-13T11:08:26.073Z,9.31
2023-01-13T11:09:26.340Z,9.30
2023-01-13T11:10:25.722Z,9.24
2023-01-13T11:11:25.845Z,9.24
2023-01-13T11:12:26.168Z,9.24
2023-01-13T11:13:26.448Z,9.26
2023-01-13T11:14:24.772Z,9.23
2023-01-13T11:15:25.124Z,9.22
2023-01-13T11:16:25.471Z,9.26
2023-01-13T11:17:25.618Z,9.23
2023-01-13T11:18:25.899Z,9.27
2023-01-13T11:19:25.162Z,9.27
2023-01-13T11:20:25.442Z,9.30
2023-01-13T11:21:25.713Z,9.31
2023-01-13T11:22:25.037Z,9.34
2023-01-13T11:23:26.292Z,9.34
2023-01-13T11:24:25.588Z,9.37
2023-01-13T11:25:25.823Z,9.35
2023-01-13T11:26:26.183Z,9.37
2023-01-13T11:27:25.872Z,9.38
2023-01-13T11:28:24.744Z,9.38
2023-01-13T11:29:25.043Z,9.37
2023-01-13T11:30:25.462Z,9.37
2023-01-13T11:31:24.688Z,9.42
2023-01-13T11:32:24.939Z,9.40
2023-01-13T11:33:25.603Z,9.40
2023-01-13T11:34:24.483Z,9.38
2023-01-13T11:35:24.771Z,9.40
2023-01-13T11:36:25.105Z,9.40
2023-01-13T11:37:24.557Z,9.38
2023-01-13T11:38:25.813Z,9.42
2023-01-13T11:39:25.160Z,9.35
2023-01-13T11:40:25.388Z,9.52
2023-01-13T11:41:25.566Z,9.52
2023-01-13T11:42:25.902Z,9.52
2023-01-13T11:43:25.151Z,9.52
2023-01-13T11:44:25.302Z,9.53
2023-01-13T11:45:25.556Z,9.53
2023-01-13T11:46:24.864Z,9.52
2023-01-13T11:47:25.106Z,9.55
2023-01-13T11:48:24.345Z,9.53
2023-01-13T11:49:25.652Z,9.56
2023-01-13T11:50:24.988Z,9.53
2023-01-13T11:51:25.128Z,9.53
2023-01-13T11:52:25.303Z,9.49
2023-01-13T11:53:25.595Z,9.50
2023-01-13T11:54:25.497Z,9.48
2023-01-13T11:55:25.865Z,9.49
2023-01-13T11:56:25.091Z,9.52
2023-01-13T11:57:25.282Z,9.56
2023-01-13T11:58:25.553Z,9.56
2023-01-13T11:59:24.898Z,9.56
2023-01-13T12:00:26.124Z,9.58
2023-01-13T12:01:24.702Z,9.60
2023-01-13T12:02:25.705Z,9.63
2023-01-13T12:03:25.961Z,9.62
2023-01-13T12:04:25.151Z,9.59
2023-01-13T12:05:24.499Z,9.60
2023-01-13T12:06:24.805Z,9.58
2023-01-13T12:07:25.096Z,9.56
2023-01-13T12:08:24.327Z,9.55
2023-01-13T12:09:25.621Z,9.52
2023-01-13T12:10:24.945Z,9.53
2023-01-13T12:11:25.135Z,9.52
2023-01-13T12:12:24.530Z,9.52
2023-01-13T12:13:25.735Z,9.50
2023-01-13T12:14:24.941Z,9.45
2023-01-13T12:15:24.246Z,9.44
2023-01-13T12:16:25.633Z,9.42
2023-01-13T12:17:25.753Z,9.44
2023-01-13T12:18:24.956Z,9.44
2023-01-13T12:19:25.190Z,9.40
2023-01-13T12:20:25.408Z,9.34
2023-01-13T12:21:25.702Z,9.26
2023-01-13T12:22:23.955Z,9.13
2023-01-13T12:23:24.925Z,8.97
2023-01-13T12:24:25.188Z,8.68
2023-01-13T12:25:24.476Z,8.39
2023-01-13T12:26:25.714Z,8.24
2023-01-13T12:27:23.977Z,8.22
2023-01-13T12:28:24.276Z,8.12
2023-01-13T12:29:25.458Z,8.10
2023-01-13T12:30:24.701Z,8.13
2023-01-13T12:31:25.029Z,8.17
2023-01-13T12:32:24.294Z,8.14
2023-01-13T12:33:24.585Z,8.12
2023-01-13T12:34:24.919Z,8.14
2023-01-13T12:35:25.037Z,8.18
2023-01-13T12:36:24.373Z,8.18
2023-01-13T12:37:25.628Z,8.21
2023-01-13T12:38:23.917Z,8.25
2023-01-13T12:39:25.681Z,8.27
2023-01-13T12:40:25.409Z,8.29
2023-01-13T12:41:24.633Z,8.32
2023-01-13T12:42:24.861Z,8.31
2023-01-13T12:43:25.263Z,8.31
2023-01-13T12:44:25.358Z,8.34
2023-01-13T12:45:24.641Z,8.32
2023-01-13T12:46:23.876Z,8.32
2023-01-13T12:47:24.107Z,8.37
2023-01-13T12:48:25.308Z,8.39
2023-01-13T12:49:23.580Z,8.37
2023-01-13T12:50:23.844Z,8.40
2023-01-13T12:51:24.071Z,8.40
2023-01-13T12:52:25.296Z,8.40
2023-01-13T12:53:24.492Z,8.42
2023-01-13T12:54:25.727Z,8.45
2023-01-13T12:55:25.053Z,8.46
2023-01-13T12:56:26.335Z,8.49
2023-01-13T12:57:24.476Z,8.54
2023-01-13T12:58:25.245Z,8.54
2023-01-13T12:59:26.069Z,8.55
2023-01-13T13:00:25.274Z,8.57
2023-01-13T13:01:24.617Z,8.58
2023-01-13T13:02:24.858Z,8.55
2023-01-13T13:03:25.036Z,8.60
2023-01-13T13:04:25.261Z,8.60
2023-01-13T13:05:23.538Z,8.61
2023-01-13T13:06:23.750Z,8.60
2023-01-13T13:07:24.953Z,8.61
2023-01-13T13:08:23.265Z,8.60
2023-01-13T13:09:24.457Z,8.61
2023-01-13T13:10:23.841Z,8.61
2023-01-13T13:11:24.988Z,8.64
2023-01-13T13:12:23.262Z,8.64
2023-01-13T13:13:24.592Z,8.64
2023-01-13T13:14:24.770Z,8.65
2023-01-13T13:15:25.031Z,8.67
2023-01-13T13:16:24.314Z,8.64
2023-01-13T13:17:24.522Z,8.65
2023-01-13T13:18:23.900Z,8.64
2023-01-13T13:19:25.076Z,8.67
2023-01-13T13:20:24.317Z,8.68
2023-01-13T13:21:23.628Z,8.68